Time;durP1;ratioP1;P1;durP2;ratioP2;P2;SDS_P1;SDS_P2;PMS_P1;PMS_P2;Temp;Humidity;BMP_temperature;BMP_pressure;BME280_temperature;BME280_humidity;BME280_pressure;Samples;Min_cycle;Max_cycle;Signal;HPM_P1;HPM_P2
2021/08/06 00:02:02;;;;;;;;;;;15.40;99.90;;;;;;5096091;28;19998;-69
2021/08/06 00:04:28;;;;;;;;;;;15.50;99.90;;;;;;5095734;28;20383;-69
2021/08/06 00:06:53;;;;;;;;;;;15.50;99.90;;;;;;5095668;28;19908;-69
2021/08/06 00:09:19;;;;;;;;;;;15.50;99.90;;;;;;5095633;28;19908;-70
2021/08/06 00:11:44;;;;;;;;;;;15.50;99.90;;;;;;5077089;28;19919;-69
2021/08/06 00:14:10;;;;;;;;;;;15.50;99.90;;;;;;5095171;28;20395;-69
2021/08/06 00:16:35;;;;;;;;;;;15.50;99.90;;;;;;5094391;28;20365;-70
2021/08/06 00:19:01;;;;;;;;;;;15.50;99.90;;;;;;5095200;28;20308;-69
2021/08/06 00:21:27;;;;;;;;;;;15.50;99.90;;;;;;5095361;28;19908;-69
2021/08/06 00:23:52;;;;;;;;;;;15.50;99.90;;;;;;5094662;28;19916;-70
2021/08/06 00:26:18;;;;;;;;;;;15.50;99.90;;;;;;5095594;28;19909;-69
2021/08/06 00:28:43;;;;;;;;;;;15.50;99.90;;;;;;5095548;28;20283;-69
2021/08/06 00:31:09;;;;;;;;;;;15.50;99.90;;;;;;5095074;28;19920;-70
2021/08/06 00:33:34;;;;;;;;;;;15.40;99.90;;;;;;5093870;28;19962;-70
2021/08/06 00:36:00;;;;;;;;;;;15.40;99.90;;;;;;5094876;28;19908;-69
2021/08/06 00:38:25;;;;;;;;;;;15.40;99.90;;;;;;5093943;28;20354;-69
2021/08/06 00:40:51;;;;;;;;;;;15.50;99.90;;;;;;5095064;28;20383;-70
2021/08/06 00:43:16;;;;;;;;;;;15.50;99.90;;;;;;5095022;28;19908;-69
2021/08/06 00:45:42;;;;;;;;;;;15.50;99.90;;;;;;5094956;28;19934;-69
2021/08/06 00:48:07;;;;;;;;;;;15.50;99.90;;;;;;5095002;28;19908;-70
2021/08/06 00:50:33;;;;;;;;;;;15.60;99.90;;;;;;5094907;28;20277;-69
2021/08/06 00:52:59;;;;;;;;;;;15.60;99.90;;;;;;5094766;28;19963;-69
2021/08/06 00:55:24;;;;;;;;;;;15.60;99.90;;;;;;5094782;28;19912;-70
2021/08/06 00:57:50;;;;;;;;;;;15.60;99.90;;;;;;5094748;28;19916;-69
2021/08/06 01:00:15;;;;;;;;;;;15.60;99.90;;;;;;5094739;28;19909;-70
2021/08/06 01:02:54;;;;;;;;;;;15.60;99.90;;;;;;5094984;28;19995;-69
2021/08/06 01:05:21;;;;;;;;;;;15.60;99.90;;;;;;5094977;28;19912;-70
2021/08/06 01:08:07;;;;;;;;;;;15.70;99.90;;;;;;5094355;28;19909;-69
2021/08/06 01:10:40;;;;;;;;;;;15.70;99.90;;;;;;5094821;28;20342;-69
2021/08/06 01:13:08;;;;;;;;;;;15.70;99.90;;;;;;5094766;28;19918;-69
2021/08/06 01:15:34;;;;;;;;;;;15.70;99.90;;;;;;5093243;28;19915;-69
2021/08/06 01:18:02;;;;;;;;;;;15.60;99.90;;;;;;5094220;28;19908;-70
2021/08/06 01:20:30;;;;;;;;;;;15.60;99.90;;;;;;5092882;28;19955;-69
2021/08/06 01:23:15;;;;;;;;;;;15.50;99.90;;;;;;5094134;28;19908;-69
2021/08/06 01:25:44;;;;;;;;;;;15.50;99.90;;;;;;5094074;28;20468;-70
2021/08/06 01:28:10;;;;;;;;;;;15.40;99.90;;;;;;5092721;28;19908;-69
2021/08/06 01:30:36;;;;;;;;;;;15.30;99.90;;;;;;5093396;28;19920;-70
2021/08/06 01:33:01;;;;;;;;;;;15.30;99.90;;;;;;5094513;28;20023;-69
2021/08/06 01:35:27;;;;;;;;;;;15.30;99.90;;;;;;5094558;28;19999;-69
2021/08/06 01:37:52;;;;;;;;;;;15.30;99.90;;;;;;5092724;28;20288;-70
2021/08/06 01:40:18;;;;;;;;;;;15.40;99.90;;;;;;5093970;28;19915;-69
2021/08/06 01:42:56;;;;;;;;;;;15.50;99.90;;;;;;5094208;28;19908;-69
2021/08/06 01:45:23;;;;;;;;;;;15.50;99.90;;;;;;5094181;28;19995;-70
2021/08/06 01:47:50;;;;;;;;;;;15.60;99.90;;;;;;5094150;28;19908;-70
2021/08/06 01:50:21;;;;;;;;;;;15.60;99.90;;;;;;5094149;28;19908;-70
2021/08/06 01:52:47;;;;;;;;;;;15.60;99.90;;;;;;5094038;28;20368;-70
2021/08/06 01:55:14;;;;;;;;;;;15.60;99.90;;;;;;5094116;28;20337;-69
2021/08/06 01:57:40;;;;;;;;;;;15.50;99.90;;;;;;5093762;28;19947;-70
2021/08/06 02:00:05;;;;;;;;;;;15.50;99.90;;;;;;5093755;28;19966;-69
2021/08/06 02:02:32;;;;;;;;;;;15.50;99.90;;;;;;5093752;28;19957;-70
2021/08/06 02:04:58;;;;;;;;;;;15.40;99.90;;;;;;5092466;28;20293;-69
2021/08/06 02:07:23;;;;;;;;;;;15.40;99.90;;;;;;5094016;28;19915;-69
2021/08/06 02:09:49;;;;;;;;;;;15.40;99.90;;;;;;5092469;28;19915;-69
2021/08/06 02:12:15;;;;;;;;;;;15.40;99.90;;;;;;5093606;28;19916;-69
2021/08/06 02:14:41;;;;;;;;;;;15.40;99.90;;;;;;5093934;28;20373;-69
2021/08/06 02:17:07;;;;;;;;;;;15.40;99.90;;;;;;5093847;28;19909;-69
2021/08/06 02:19:32;;;;;;;;;;;15.30;99.90;;;;;;5093620;28;19909;-69
2021/08/06 02:22:00;;;;;;;;;;;15.30;99.90;;;;;;5093843;28;19908;-69
2021/08/06 02:24:27;;;;;;;;;;;15.30;99.90;;;;;;5092844;28;20277;-69
2021/08/06 02:26:54;;;;;;;;;;;15.30;99.90;;;;;;5094156;28;19908;-69
2021/08/06 02:29:21;;;;;;;;;;;15.30;99.90;;;;;;5094068;28;19908;-69
2021/08/06 02:31:47;;;;;;;;;;;15.20;99.90;;;;;;5093360;28;20440;-70
2021/08/06 02:34:14;;;;;;;;;;;15.20;99.90;;;;;;5093490;28;19930;-69
2021/08/06 02:36:39;;;;;;;;;;;15.20;99.90;;;;;;5093479;28;19912;-69
2021/08/06 02:39:10;;;;;;;;;;;15.20;99.90;;;;;;5094600;28;19908;-69
2021/08/06 02:41:36;;;;;;;;;;;15.20;99.90;;;;;;5096112;28;19951;-69
2021/08/06 02:44:01;;;;;;;;;;;15.20;99.90;;;;;;5097015;28;19908;-69
2021/08/06 02:46:26;;;;;;;;;;;15.20;99.90;;;;;;5078805;28;19908;-69
2021/08/06 02:48:52;;;;;;;;;;;15.20;99.90;;;;;;5097231;28;20410;-69
2021/08/06 02:51:17;;;;;;;;;;;15.20;99.90;;;;;;5096846;28;20444;-69
2021/08/06 02:53:43;;;;;;;;;;;15.20;99.90;;;;;;5095956;28;20341;-69
2021/08/06 02:56:08;;;;;;;;;;;15.20;99.90;;;;;;5097099;28;19908;-69
2021/08/06 02:58:34;;;;;;;;;;;15.20;99.90;;;;;;5095490;28;20053;-69
2021/08/06 03:00:59;;;;;;;;;;;15.20;99.90;;;;;;5096707;28;19961;-69
2021/08/06 03:03:25;;;;;;;;;;;15.20;99.90;;;;;;5096655;28;19912;-69
2021/08/06 03:05:50;;;;;;;;;;;15.20;99.90;;;;;;5095962;28;20317;-69
2021/08/06 03:08:15;;;;;;;;;;;15.10;99.90;;;;;;5095267;28;19916;-69
2021/08/06 03:10:41;;;;;;;;;;;15.10;99.90;;;;;;5096542;28;19914;-69
2021/08/06 03:13:06;;;;;;;;;;;15.10;99.90;;;;;;5096434;28;20019;-69
2021/08/06 03:15:32;;;;;;;;;;;15.10;99.90;;;;;;5096436;28;19915;-69
2021/08/06 03:17:57;;;;;;;;;;;15.10;99.90;;;;;;5096371;28;20357;-69
2021/08/06 03:20:23;;;;;;;;;;;15.10;99.90;;;;;;5096376;28;20019;-69
2021/08/06 03:22:49;;;;;;;;;;;15.10;99.90;;;;;;5096272;28;20415;-69
2021/08/06 03:25:15;;;;;;;;;;;15.20;99.90;;;;;;5095577;28;19912;-69
2021/08/06 03:27:40;;;;;;;;;;;15.10;99.90;;;;;;5095497;28;19952;-69
2021/08/06 03:30:08;;;;;;;;;;;15.20;99.90;;;;;;5096114;28;19967;-69
2021/08/06 03:32:34;;;;;;;;;;;15.10;99.90;;;;;;5095773;28;19959;-69
2021/08/06 03:34:59;;;;;;;;;;;15.20;99.90;;;;;;5096036;28;19919;-69
2021/08/06 03:37:25;;;;;;;;;;;15.10;99.90;;;;;;5096285;28;19919;-69
2021/08/06 03:39:50;;;;;;;;;;;15.20;99.90;;;;;;5096554;28;20353;-70
2021/08/06 03:42:16;;;;;;;;;;;15.20;99.90;;;;;;5096175;28;19908;-69
2021/08/06 03:44:41;;;;;;;;;;;15.10;99.90;;;;;;5096431;28;19947;-69
2021/08/06 03:47:07;;;;;;;;;;;15.10;99.90;;;;;;5096081;28;19915;-69
2021/08/06 03:49:32;;;;;;;;;;;15.10;99.90;;;;;;5095357;28;19908;-69
2021/08/06 03:51:58;;;;;;;;;;;15.10;99.90;;;;;;5095626;28;20281;-69
2021/08/06 03:54:23;;;;;;;;;;;15.10;99.90;;;;;;5094789;28;19950;-69
2021/08/06 03:56:49;;;;;;;;;;;15.10;99.90;;;;;;5095897;28;19957;-69
2021/08/06 03:59:15;;;;;;;;;;;15.20;99.90;;;;;;5095892;28;19919;-69
2021/08/06 04:01:40;;;;;;;;;;;15.20;99.90;;;;;;5094829;28;20004;-69
2021/08/06 04:04:07;;;;;;;;;;;15.10;99.90;;;;;;5095748;28;19932;-69
2021/08/06 04:06:33;;;;;;;;;;;15.20;99.90;;;;;;5095715;28;19908;-69
2021/08/06 04:08:58;;;;;;;;;;;15.20;99.90;;;;;;5095681;28;19915;-69
2021/08/06 04:11:24;;;;;;;;;;;15.20;99.90;;;;;;5095283;28;20380;-70
2021/08/06 04:13:49;;;;;;;;;;;15.20;99.90;;;;;;5095284;28;20362;-70
2021/08/06 04:16:15;;;;;;;;;;;15.20;99.90;;;;;;5077074;28;19915;-69
2021/08/06 04:18:40;;;;;;;;;;;15.20;99.90;;;;;;5095500;28;20411;-69
2021/08/06 04:21:06;;;;;;;;;;;15.30;99.90;;;;;;5093873;28;19908;-69
2021/08/06 04:23:31;;;;;;;;;;;15.30;99.90;;;;;;5095110;28;20279;-69
2021/08/06 04:25:57;;;;;;;;;;;15.20;99.90;;;;;;5095070;28;19962;-70
2021/08/06 04:28:22;;;;;;;;;;;15.30;99.90;;;;;;5095028;28;19957;-70
2021/08/06 04:30:48;;;;;;;;;;;15.30;99.90;;;;;;5095073;28;19915;-70
2021/08/06 04:33:13;;;;;;;;;;;15.30;99.90;;;;;;5095135;28;20349;-69
2021/08/06 04:35:39;;;;;;;;;;;15.40;99.90;;;;;;5095166;28;19913;-70
2021/08/06 04:38:04;;;;;;;;;;;15.40;99.90;;;;;;5094850;28;20392;-69
2021/08/06 04:40:29;;;;;;;;;;;15.40;99.90;;;;;;5093926;28;19920;-69
2021/08/06 04:42:55;;;;;;;;;;;15.50;99.90;;;;;;5095009;28;19908;-70
2021/08/06 04:45:20;;;;;;;;;;;15.60;99.90;;;;;;5095011;28;19917;-70
2021/08/06 04:47:47;;;;;;;;;;;15.60;99.90;;;;;;5095019;28;20310;-69
2021/08/06 04:50:13;;;;;;;;;;;15.70;99.90;;;;;;5093780;28;19909;-70
2021/08/06 04:52:39;;;;;;;;;;;15.90;99.90;;;;;;5093554;28;19959;-70
2021/08/06 04:55:04;;;;;;;;;;;15.90;99.90;;;;;;5094563;28;20003;-70
2021/08/06 04:57:30;;;;;;;;;;;16.10;99.90;;;;;;5094547;28;19908;-70
2021/08/06 04:59:55;;;;;;;;;;;16.30;99.90;;;;;;5094477;28;19912;-69
2021/08/06 05:02:21;;;;;;;;;;;16.50;99.90;;;;;;5094014;28;19915;-70
2021/08/06 05:04:46;;;;;;;;;;;16.60;99.90;;;;;;5094412;28;19913;-70
2021/08/06 05:07:19;;;;;;;;;;;16.60;99.90;;;;;;5094358;28;20020;-70
2021/08/06 05:09:45;;;;;;;;;;;16.80;99.90;;;;;;5094362;28;19915;-70
2021/08/06 05:12:11;;;;;;;;;;;16.80;99.90;;;;;;5094238;28;19912;-70
2021/08/06 05:14:36;;;;;;;;;;;17.00;99.90;;;;;;5093313;28;19909;-70
2021/08/06 05:17:02;;;;;;;;;;;17.10;99.90;;;;;;5094220;28;19915;-70
2021/08/06 05:19:27;;;;;;;;;;;17.20;99.90;;;;;;5094184;28;19908;-70
2021/08/06 05:21:52;;;;;;;;;;;17.30;99.90;;;;;;5094158;28;19915;-70
2021/08/06 05:24:18;;;;;;;;;;;17.40;99.90;;;;;;5094129;28;19908;-70
2021/08/06 05:26:43;;;;;;;;;;;17.50;99.90;;;;;;5094107;28;19917;-70
2021/08/06 05:29:09;;;;;;;;;;;17.60;99.90;;;;;;5093441;28;19915;-70
2021/08/06 05:31:34;;;;;;;;;;;17.70;99.90;;;;;;5093987;28;19931;-70
2021/08/06 05:34:00;;;;;;;;;;;17.70;99.90;;;;;;5093636;28;19908;-70
2021/08/06 05:36:25;;;;;;;;;;;17.70;99.90;;;;;;5094564;28;19908;-70
2021/08/06 05:38:51;;;;;;;;;;;17.80;99.90;;;;;;5094564;28;19908;-70
2021/08/06 05:41:16;;;;;;;;;;;17.80;99.90;;;;;;5092655;28;19908;-70
2021/08/06 05:43:41;;;;;;;;;;;17.90;99.90;;;;;;5094238;28;19913;-70
2021/08/06 05:46:07;;;;;;;;;;;17.90;99.90;;;;;;5094478;28;20356;-70
2021/08/06 05:48:32;;;;;;;;;;;18.10;99.90;;;;;;5094468;28;20346;-70
2021/08/06 05:50:58;;;;;;;;;;;18.20;99.90;;;;;;5094414;28;19908;-70
2021/08/06 05:53:23;;;;;;;;;;;18.20;99.90;;;;;;5094077;28;19951;-70
2021/08/06 05:55:49;;;;;;;;;;;18.30;99.90;;;;;;5094109;28;19908;-70
2021/08/06 05:58:14;;;;;;;;;;;18.30;99.90;;;;;;5093788;28;19934;-70
2021/08/06 06:00:40;;;;;;;;;;;18.30;99.90;;;;;;5093728;28;19909;-69
2021/08/06 06:03:05;;;;;;;;;;;18.30;99.90;;;;;;5093710;28;19908;-70
2021/08/06 06:05:31;;;;;;;;;;;18.20;99.90;;;;;;5093773;28;19961;-70
2021/08/06 06:07:56;;;;;;;;;;;18.30;99.90;;;;;;5093704;28;19931;-70
2021/08/06 06:10:22;;;;;;;;;;;18.20;99.90;;;;;;5093683;28;20304;-70
2021/08/06 06:12:48;;;;;;;;;;;17.90;99.90;;;;;;5093565;28;20281;-70
2021/08/06 06:15:14;;;;;;;;;;;17.70;99.90;;;;;;5096704;28;20319;-70
2021/08/06 06:17:39;;;;;;;;;;;17.50;99.90;;;;;;5097832;28;19995;-70
2021/08/06 06:20:05;;;;;;;;;;;17.30;99.90;;;;;;5097787;28;20262;-69
2021/08/06 06:22:31;;;;;;;;;;;17.20;99.90;;;;;;5097763;28;19931;-69
2021/08/06 06:24:56;;;;;;;;;;;17.10;99.90;;;;;;5097733;28;19914;-69
2021/08/06 06:27:22;;;;;;;;;;;17.00;99.90;;;;;;5097717;28;20304;-70
2021/08/06 06:29:47;;;;;;;;;;;17.00;99.90;;;;;;5097656;28;19908;-70
2021/08/06 06:32:13;;;;;;;;;;;17.10;99.90;;;;;;5097033;28;19970;-70
2021/08/06 06:34:38;;;;;;;;;;;17.10;99.90;;;;;;5097228;28;19915;-70
2021/08/06 06:37:03;;;;;;;;;;;17.20;99.90;;;;;;5097235;28;19912;-70
2021/08/06 06:39:29;;;;;;;;;;;17.30;99.90;;;;;;5097178;28;19966;-70
2021/08/06 06:41:54;;;;;;;;;;;17.30;99.90;;;;;;5095940;28;19912;-70
2021/08/06 06:44:20;;;;;;;;;;;17.50;99.90;;;;;;5097614;28;19966;-70
2021/08/06 06:46:45;;;;;;;;;;;17.60;99.90;;;;;;5096951;28;19915;-70
2021/08/06 06:49:11;;;;;;;;;;;17.80;99.90;;;;;;5096955;28;19915;-70
2021/08/06 06:51:36;;;;;;;;;;;17.90;99.90;;;;;;5097136;28;19919;-70
2021/08/06 06:54:01;;;;;;;;;;;18.10;99.90;;;;;;5097173;28;20273;-70
2021/08/06 06:56:27;;;;;;;;;;;18.20;99.90;;;;;;5097056;28;20006;-70
2021/08/06 06:58:53;;;;;;;;;;;18.30;99.90;;;;;;5097007;28;19915;-70
2021/08/06 07:01:19;;;;;;;;;;;18.40;99.90;;;;;;5096941;28;19915;-70
2021/08/06 07:03:44;;;;;;;;;;;18.40;99.90;;;;;;5096984;28;19909;-70
2021/08/06 07:06:09;;;;;;;;;;;18.30;99.90;;;;;;5096814;28;19947;-70
2021/08/06 07:08:35;;;;;;;;;;;18.40;99.90;;;;;;5096829;28;19914;-70
2021/08/06 07:11:00;;;;;;;;;;;18.40;99.90;;;;;;5095646;28;19908;-70
2021/08/06 07:13:26;;;;;;;;;;;18.60;99.90;;;;;;5096429;28;19961;-70
2021/08/06 07:15:51;;;;;;;;;;;18.80;99.90;;;;;;5096480;28;19908;-70
2021/08/06 07:18:17;;;;;;;;;;;18.90;99.90;;;;;;5096340;28;19908;-70
2021/08/06 07:20:42;;;;;;;;;;;18.90;99.90;;;;;;5096406;28;19912;-70
2021/08/06 07:23:08;;;;;;;;;;;18.90;99.90;;;;;;5096326;28;19908;-70
2021/08/06 07:25:33;;;;;;;;;;;18.90;99.90;;;;;;5095955;28;19909;-70
2021/08/06 07:27:59;;;;;;;;;;;18.80;99.90;;;;;;5096444;28;20410;-70
2021/08/06 07:30:25;;;;;;;;;;;18.60;99.90;;;;;;5096405;28;19920;-70
2021/08/06 07:32:51;;;;;;;;;;;18.40;99.90;;;;;;5095833;28;20061;-70
2021/08/06 07:35:18;;;;;;;;;;;18.20;99.90;;;;;;5096089;28;19908;-70
2021/08/06 07:37:44;;;;;;;;;;;18.00;99.90;;;;;;5096293;28;19915;-70
2021/08/06 07:40:10;;;;;;;;;;;17.90;99.90;;;;;;5096268;28;19908;-70
2021/08/06 07:42:36;;;;;;;;;;;17.80;99.90;;;;;;5096149;28;19908;-70
2021/08/06 07:45:01;;;;;;;;;;;17.70;99.90;;;;;;5095810;28;20361;-70
2021/08/06 07:47:27;;;;;;;;;;;17.70;99.90;;;;;;5096082;28;19908;-70
2021/08/06 07:49:52;;;;;;;;;;;17.60;99.90;;;;;;5096039;28;19954;-70
2021/08/06 07:52:18;;;;;;;;;;;17.60;99.90;;;;;;5095881;28;20010;-70
2021/08/06 07:54:43;;;;;;;;;;;17.60;99.90;;;;;;5095925;28;19908;-70
2021/08/06 07:57:09;;;;;;;;;;;17.50;99.90;;;;;;5096128;28;19908;-70
2021/08/06 07:59:35;;;;;;;;;;;17.70;99.90;;;;;;5096134;28;19959;-70
2021/08/06 08:02:00;;;;;;;;;;;17.80;99.90;;;;;;5076034;28;19969;-70
2021/08/06 08:04:26;;;;;;;;;;;17.80;99.90;;;;;;5018958;28;19964;-70
2021/08/06 08:06:52;;;;;;;;;;;17.90;99.90;;;;;;4992935;28;19932;-70
2021/08/06 08:09:17;;;;;;;;;;;18.00;99.90;;;;;;4992752;28;20006;-70
2021/08/06 08:11:42;;;;;;;;;;;18.20;99.90;;;;;;5076008;28;19919;-70
2021/08/06 08:14:08;;;;;;;;;;;18.30;99.90;;;;;;5030553;28;19914;-70
2021/08/06 08:16:33;;;;;;;;;;;18.50;99.90;;;;;;5080745;28;19915;-70
2021/08/06 08:18:59;;;;;;;;;;;18.50;99.90;;;;;;5036014;28;20384;-70
2021/08/06 08:21:24;;;;;;;;;;;18.50;99.90;;;;;;5055399;28;20004;-70
2021/08/06 08:23:50;;;;;;;;;;;18.40;99.90;;;;;;5006811;28;19992;-70
2021/08/06 08:26:15;;;;;;;;;;;18.50;99.90;;;;;;4992100;28;19909;-70
2021/08/06 08:28:41;;;;;;;;;;;18.60;99.90;;;;;;4991483;28;19932;-70
2021/08/06 08:31:06;;;;;;;;;;;18.60;99.90;;;;;;4992437;28;19925;-70
2021/08/06 08:33:32;;;;;;;;;;;18.70;99.90;;;;;;4991586;28;20390;-70
2021/08/06 08:35:57;;;;;;;;;;;18.80;99.90;;;;;;4991486;28;19932;-70
2021/08/06 08:38:23;;;;;;;;;;;18.90;99.90;;;;;;4992370;28;19917;-70
2021/08/06 08:40:48;;;;;;;;;;;19.10;99.90;;;;;;4992332;28;19963;-70
2021/08/06 08:43:14;;;;;;;;;;;19.20;99.90;;;;;;4992404;28;19910;-70
2021/08/06 08:45:40;;;;;;;;;;;19.30;99.90;;;;;;4992378;28;19913;-70
2021/08/06 08:48:08;;;;;;;;;;;19.50;99.90;;;;;;4991059;28;19910;-70
2021/08/06 08:50:35;;;;;;;;;;;19.60;99.90;;;;;;4992588;28;20367;-70
2021/08/06 08:53:00;;;;;;;;;;;19.70;99.90;;;;;;4992510;28;20006;-70
2021/08/06 08:55:26;;;;;;;;;;;19.80;99.90;;;;;;4991468;28;19909;-70
2021/08/06 08:57:51;;;;;;;;;;;19.80;99.90;;;;;;4992453;28;19914;-70
2021/08/06 09:00:17;;;;;;;;;;;19.90;99.90;;;;;;4991440;28;19917;-70
2021/08/06 09:02:43;;;;;;;;;;;20.20;99.90;;;;;;4992457;28;19910;-70
2021/08/06 09:05:10;;;;;;;;;;;20.10;99.90;;;;;;4990718;28;19916;-70
2021/08/06 09:07:35;;;;;;;;;;;20.10;99.90;;;;;;4992067;28;20022;-70
2021/08/06 09:10:05;;;;;;;;;;;20.20;99.90;;;;;;4992037;28;19926;-70
2021/08/06 09:12:31;;;;;;;;;;;20.30;99.90;;;;;;4991908;28;20439;-70
2021/08/06 09:14:56;;;;;;;;;;;20.30;99.90;;;;;;4990673;28;19916;-70
2021/08/06 09:17:22;;;;;;;;;;;20.30;99.90;;;;;;4991940;28;20004;-70
2021/08/06 09:19:56;;;;;;;;;;;20.40;99.90;;;;;;4991844;28;19952;-70
2021/08/06 09:22:24;;;;;;;;;;;20.50;99.90;;;;;;4991876;28;20329;-70
2021/08/06 09:25:10;;;;;;;;;;;20.50;99.90;;;;;;4991873;28;19956;-70
2021/08/06 09:27:38;;;;;;;;;;;20.20;99.90;;;;;;4990490;28;20290;-70
2021/08/06 09:30:05;;;;;;;;;;;20.20;99.90;;;;;;4992029;28;19910;-70
2021/08/06 09:32:51;;;;;;;;;;;20.30;99.90;;;;;;4990236;28;19971;-70
2021/08/06 09:35:17;;;;;;;;;;;20.10;99.90;;;;;;4991651;28;19910;-70
2021/08/06 09:37:44;;;;;;;;;;;20.40;99.90;;;;;;4991691;28;20400;-70
2021/08/06 09:40:11;;;;;;;;;;;20.30;99.90;;;;;;4991553;28;19917;-70
2021/08/06 09:42:38;;;;;;;;;;;20.50;99.90;;;;;;4991528;28;19916;-70
2021/08/06 09:45:05;;;;;;;;;;;20.60;99.90;;;;;;4991635;28;20371;-70
2021/08/06 09:47:32;;;;;;;;;;;21.00;99.90;;;;;;4991921;28;19945;-70
2021/08/06 09:49:59;;;;;;;;;;;21.20;99.90;;;;;;4995072;28;20260;-71
2021/08/06 09:52:29;;;;;;;;;;;21.00;99.90;;;;;;4995232;28;20391;-70
2021/08/06 09:54:54;;;;;;;;;;;21.10;99.90;;;;;;4995236;28;19910;-70
2021/08/06 09:57:20;;;;;;;;;;;21.10;99.90;;;;;;4995203;28;19909;-70
2021/08/06 09:59:49;;;;;;;;;;;21.10;99.90;;;;;;4995222;28;20363;-70
2021/08/06 10:02:17;;;;;;;;;;;21.20;99.90;;;;;;4995080;28;19921;-70
2021/08/06 10:04:45;;;;;;;;;;;21.20;99.90;;;;;;4995144;28;19970;-70
2021/08/06 10:07:10;;;;;;;;;;;21.00;99.90;;;;;;4995072;28;19910;-70
2021/08/06 10:09:36;;;;;;;;;;;20.70;99.90;;;;;;4994921;28;19984;-70
2021/08/06 10:12:02;;;;;;;;;;;20.40;99.90;;;;;;4977057;28;20278;-70
2021/08/06 10:14:27;;;;;;;;;;;20.30;99.90;;;;;;4994919;28;20386;-70
2021/08/06 10:16:53;;;;;;;;;;;20.20;99.90;;;;;;4994742;28;19910;-70
2021/08/06 10:19:19;;;;;;;;;;;20.00;99.90;;;;;;4994567;28;19917;-70
2021/08/06 10:21:45;;;;;;;;;;;19.80;99.90;;;;;;4994799;28;19913;-70
2021/08/06 10:24:14;;;;;;;;;;;19.70;99.90;;;;;;4993727;28;19917;-70
2021/08/06 10:26:44;;;;;;;;;;;19.60;99.90;;;;;;4994106;28;19914;-70
2021/08/06 10:29:10;;;;;;;;;;;19.50;99.90;;;;;;4994452;28;19910;-70
2021/08/06 10:31:35;;;;;;;;;;;19.20;99.90;;;;;;4994178;28;19926;-70
2021/08/06 10:34:05;;;;;;;;;;;19.10;99.90;;;;;;4993249;28;19993;-70
2021/08/06 10:36:47;;;;;;;;;;;19.00;99.90;;;;;;4994700;28;19960;-70
2021/08/06 10:39:34;;;;;;;;;;;19.00;99.90;;;;;;4994526;28;20017;-70
2021/08/06 10:42:00;;;;;;;;;;;19.80;99.90;;;;;;4994220;28;20299;-70
2021/08/06 10:44:25;;;;;;;;;;;20.10;99.90;;;;;;4994483;28;19957;-70
2021/08/06 10:46:56;;;;;;;;;;;20.30;99.90;;;;;;4976749;28;19941;-70
2021/08/06 10:49:22;;;;;;;;;;;21.20;99.90;;;;;;4994215;28;20012;-70
2021/08/06 10:51:48;;;;;;;;;;;21.50;99.90;;;;;;4994043;28;20016;-70
2021/08/06 10:54:28;;;;;;;;;;;21.00;99.90;;;;;;4994139;28;19910;-70
2021/08/06 10:57:10;;;;;;;;;;;21.40;99.90;;;;;;4994073;28;20004;-70
2021/08/06 10:59:37;;;;;;;;;;;21.30;99.90;;;;;;4993289;28;19914;-70
2021/08/06 11:02:02;;;;;;;;;;;21.50;99.90;;;;;;4993074;28;19917;-70
2021/08/06 11:07:27;;;;;;;;;;;22.00;99.90;;;;;;5009000;28;20278;-71
2021/08/06 11:09:55;;;;;;;;;;;22.30;99.90;;;;;;5008008;28;19913;-70
2021/08/06 11:12:28;;;;;;;;;;;22.30;99.90;;;;;;5008376;28;19909;-70
2021/08/06 11:14:54;;;;;;;;;;;22.30;99.90;;;;;;5006860;28;19914;-71
2021/08/06 11:17:21;;;;;;;;;;;22.20;99.90;;;;;;5008074;28;19910;-71
2021/08/06 11:19:51;;;;;;;;;;;22.00;99.90;;;;;;5008001;28;19910;-71
2021/08/06 11:22:19;;;;;;;;;;;22.10;99.90;;;;;;5007970;28;19909;-71
2021/08/06 11:24:47;;;;;;;;;;;22.10;99.90;;;;;;5008420;28;20355;-70
2021/08/06 11:27:14;;;;;;;;;;;22.30;99.90;;;;;;5006530;28;20017;-71
2021/08/06 11:29:41;;;;;;;;;;;22.40;99.90;;;;;;5007794;28;19914;-71
2021/08/06 11:32:08;;;;;;;;;;;22.30;99.90;;;;;;5006948;28;19910;-70
2021/08/06 11:34:54;;;;;;;;;;;22.00;99.90;;;;;;5008025;28;20008;-71
2021/08/06 11:37:20;;;;;;;;;;;21.70;99.90;;;;;;5007887;28;19920;-71
2021/08/06 11:40:06;;;;;;;;;;;21.60;99.90;;;;;;5007952;28;20377;-71
2021/08/06 11:42:31;;;;;;;;;;;21.50;99.90;;;;;;5006315;28;19957;-71
2021/08/06 11:44:57;;;;;;;;;;;21.80;99.90;;;;;;5007507;28;19949;-70
2021/08/06 11:47:39;;;;;;;;;;;21.90;99.90;;;;;;5006345;28;19910;-70
2021/08/06 11:50:07;;;;;;;;;;;21.90;99.90;;;;;;5006612;28;20454;-70
2021/08/06 11:52:36;;;;;;;;;;;21.70;99.90;;;;;;5007691;28;19917;-71
2021/08/06 11:55:02;;;;;;;;;;;21.90;99.90;;;;;;5007560;28;19917;-71
2021/08/06 11:57:44;;;;;;;;;;;21.70;99.90;;;;;;5007592;28;19910;-71
2021/08/06 12:00:18;;;;;;;;;;;22.00;99.90;;;;;;5007593;28;19943;-71
2021/08/06 12:02:43;;;;;;;;;;;22.00;99.90;;;;;;5007277;28;19910;-71
2021/08/06 12:05:24;;;;;;;;;;;21.80;99.90;;;;;;5024296;28;19935;-71
2021/08/06 12:07:49;;;;;;;;;;;21.70;99.90;;;;;;5009047;28;19913;-71
2021/08/06 12:10:15;;;;;;;;;;;21.80;99.90;;;;;;5025361;28;19920;-70
2021/08/06 12:12:40;;;;;;;;;;;22.10;99.90;;;;;;5018161;28;19909;-71
2021/08/06 12:15:22;;;;;;;;;;;22.30;99.90;;;;;;5089673;28;19908;-70
2021/08/06 12:17:47;;;;;;;;;;;22.20;99.90;;;;;;4993956;28;19914;-70
2021/08/06 12:20:32;;;;;;;;;;;22.10;99.90;;;;;;5045868;28;19915;-70
2021/08/06 12:22:58;;;;;;;;;;;22.20;99.90;;;;;;5038391;28;20370;-71
2021/08/06 12:25:23;;;;;;;;;;;22.40;99.90;;;;;;5082081;28;19912;-70
2021/08/06 12:27:49;;;;;;;;;;;22.40;99.90;;;;;;5030738;28;19919;-71
2021/08/06 12:30:31;;;;;;;;;;;22.20;99.90;;;;;;5009532;28;19914;-70
2021/08/06 12:32:57;;;;;;;;;;;22.10;99.90;;;;;;4993848;28;20363;-70
2021/08/06 12:35:24;;;;;;;;;;;22.40;99.90;;;;;;4993731;28;19910;-70
2021/08/06 12:37:50;;;;;;;;;;;22.30;99.90;;;;;;4992169;28;19913;-71
2021/08/06 12:40:15;;;;;;;;;;;22.60;99.90;;;;;;4992369;28;19910;-71
2021/08/06 12:42:41;;;;;;;;;;;22.70;99.90;;;;;;4993749;28;19910;-70
2021/08/06 12:45:08;;;;;;;;;;;22.40;99.90;;;;;;4976199;28;19920;-70
2021/08/06 12:47:45;;;;;;;;;;;22.00;99.90;;;;;;4993664;28;19910;-70
2021/08/06 12:50:12;;;;;;;;;;;21.60;99.90;;;;;;4993643;28;19916;-70
2021/08/06 12:52:38;;;;;;;;;;;21.20;99.90;;;;;;4994085;28;20351;-70
2021/08/06 12:55:06;;;;;;;;;;;19.30;99.90;;;;;;4994098;28;19965;-70
2021/08/06 12:57:51;;;;;;;;;;;18.30;99.90;;;;;;4992466;28;19917;-70
2021/08/06 13:00:27;;;;;;;;;;;18.10;99.90;;;;;;4993438;28;20001;-70
2021/08/06 13:02:56;;;;;;;;;;;18.20;99.90;;;;;;4993718;28;19917;-70
2021/08/06 13:05:22;;;;;;;;;;;18.50;99.90;;;;;;4993345;28;19921;-70
2021/08/06 13:07:47;;;;;;;;;;;18.90;99.90;;;;;;4993553;28;20424;-70
2021/08/06 13:10:29;;;;;;;;;;;19.20;99.90;;;;;;4992868;28;20369;-70
2021/08/06 13:12:55;;;;;;;;;;;19.50;99.90;;;;;;4993867;28;19910;-70
2021/08/06 13:15:21;;;;;;;;;;;19.70;99.90;;;;;;4993778;28;20021;-71
2021/08/06 13:17:46;;;;;;;;;;;19.90;99.90;;;;;;4992287;28;20252;-71
2021/08/06 13:20:12;;;;;;;;;;;20.00;99.90;;;;;;4993192;28;19909;-71
2021/08/06 13:22:37;;;;;;;;;;;20.00;99.90;;;;;;4993175;28;19910;-71
2021/08/06 13:25:03;;;;;;;;;;;20.30;99.90;;;;;;4992984;28;19921;-71
2021/08/06 13:27:28;;;;;;;;;;;20.30;99.90;;;;;;4993024;28;19917;-70
2021/08/06 13:29:54;;;;;;;;;;;20.40;99.90;;;;;;4991254;28;20008;-71
2021/08/06 13:32:19;;;;;;;;;;;20.50;99.90;;;;;;4993534;28;20363;-71
2021/08/06 13:34:45;;;;;;;;;;;20.80;99.90;;;;;;4993498;28;19910;-71
2021/08/06 13:37:10;;;;;;;;;;;20.90;99.90;;;;;;4993443;28;19955;-71
2021/08/06 13:39:36;;;;;;;;;;;21.10;99.90;;;;;;4993163;28;19910;-71
2021/08/06 13:42:02;;;;;;;;;;;21.00;99.90;;;;;;4993108;28;20344;-70
2021/08/06 13:44:28;;;;;;;;;;;20.90;99.90;;;;;;4993094;28;20004;-71
2021/08/06 13:46:53;;;;;;;;;;;21.10;99.90;;;;;;4991402;28;20009;-70
2021/08/06 13:49:19;;;;;;;;;;;21.20;99.90;;;;;;4991497;28;20020;-71
2021/08/06 13:51:44;;;;;;;;;;;21.50;99.90;;;;;;4992693;28;19949;-71
2021/08/06 13:54:10;;;;;;;;;;;21.40;99.90;;;;;;4992601;28;19921;-71
2021/08/06 13:56:36;;;;;;;;;;;21.30;99.90;;;;;;4992600;28;20423;-71
2021/08/06 13:59:02;;;;;;;;;;;21.50;99.90;;;;;;4991176;28;19932;-71
2021/08/06 14:01:27;;;;;;;;;;;21.70;99.90;;;;;;4992763;28;20363;-71
2021/08/06 14:03:53;;;;;;;;;;;21.80;99.90;;;;;;4992774;28;19910;-71
2021/08/06 14:06:18;;;;;;;;;;;21.90;99.90;;;;;;4992326;28;19929;-71
2021/08/06 14:08:43;;;;;;;;;;;22.20;99.90;;;;;;4991368;28;19916;-71
2021/08/06 14:11:09;;;;;;;;;;;22.30;99.90;;;;;;4991198;28;19921;-71
2021/08/06 14:13:35;;;;;;;;;;;22.30;99.90;;;;;;4992445;28;19917;-71
2021/08/06 14:16:01;;;;;;;;;;;22.30;99.90;;;;;;4992384;28;19933;-70
2021/08/06 14:18:26;;;;;;;;;;;22.50;99.90;;;;;;4992909;28;19957;-71